Flight Track Log - Related Links

Times and Time Zones

All times are in EDT time to prevent confusion due to time zone crossing. See the N931FR flight status page for this flight to view local times or setup timezone preferences in your user account.

Time Position Orientation Groundspeed Altitude Reporting Facility
EDT Latitude Longitude Course Direction KTS MPH feet Rate Location/Type
Sat 12:43:36 PM 33.4300 -112.0340 266° West 162 186 1,900  Level FlightAware ADS-B
Sat 12:43:59 PM 33.4300 -112.0560 270° West 168 193 2,600 1,535 Climbing FlightAware ADS-B
Sat 12:44:19 PM 33.4300 -112.0760 270° West 191 220 3,000 1,350 Climbing FlightAware ADS-B
Sat 12:44:39 PM 33.4300 -112.0990 270° West 214 246 3,500 1,350 Climbing FlightAware ADS-B
Sat 12:44:59 PM 33.4310 -112.1250 273° West 244 281 3,900 1,227 Climbing FlightAware ADS-B
Sat 12:45:23 PM 33.4320 -112.1590 272° West 275 316 4,400 1,500 Climbing FlightAware ADS-B
Sat 12:45:35 PM 33.4360 -112.1770 285° West 287 330 4,800 2,250 Climbing FlightAware ADS-B
Sat 12:45:39 PM 33.4390 -112.1830 301° West 288 331 5,000 3,000 Climbing FlightAware ADS-B
Sat 12:45:49 PM 33.4470 -112.1940 311° West 289 333 5,500 3,000 Climbing FlightAware ADS-B
Sat 12:45:53 PM 33.4520 -112.1980 326° Northwest 288 331 5,700 3,500 Climbing FlightAware ADS-B
Sat 12:46:01 PM 33.4620 -112.2040 333° Northwest 285 328 6,200 3,529 Climbing FlightAware ADS-B
Sat 12:46:10 PM 33.4720 -112.2060 351° North 282 325 6,700 3,188 Climbing FlightAware ADS-B
Sat 12:46:33 PM 33.5020 -112.1990 11° North 280 322 7,900 2,743 Climbing FlightAware ADS-B
Sat 12:46:45 PM 33.5150 -112.1890 33° Northeast 285 328 8,300 2,357 Climbing FlightAware ADS-B
Sat 12:47:01 PM 33.5330 -112.1740 35° Northeast 289 333 9,000 2,833 Climbing FlightAware ADS-B
Sat 12:47:21 PM 33.5550 -112.1560 34° Northeast 291 335 10,000 2,036 Climbing FlightAware ADS-B
Sat 12:47:57 PM 33.5970 -112.1200 36° Northeast 323 372 10,900 1,941 Climbing FlightAware ADS-B
Sat 12:48:29 PM 33.6360 -112.0860 36° Northeast 336 387 12,200 2,348 Climbing FlightAware ADS-B
Sat 12:49:06 PM 33.6840 -112.0460 35° Northeast 345 397 13,600 2,229 Climbing FlightAware ADS-B
Sat 12:49:39 PM 33.7280 -112.0080 36° Northeast 355 409 14,800 2,113 Climbing FlightAware ADS-B
Sat 12:50:17 PM 33.7790 -111.9640 36° Northeast 367 422 16,100 2,000 Climbing FlightAware ADS-B
Sat 12:50:51 PM 33.8280 -111.9220 35° Northeast 378 435 17,200 1,886 Climbing FlightAware ADS-B
Sat 12:51:27 PM 33.8790 -111.8780 36° Northeast 387 445 18,300 1,833 Climbing FlightAware ADS-B
Sat 12:52:03 PM 33.9320 -111.8330 35° Northeast 395 455 19,400 1,775 Climbing FlightAware ADS-B
Sat 12:52:38 PM 33.9820 -111.7890 36° Northeast 401 461 20,400 2,091 Climbing FlightAware ADS-B
Sat 12:53:09 PM 34.0300 -111.7480 35° Northeast 394 453 21,700 1,478 Climbing FlightAware ADS-B
Sat 12:53:47 PM 34.0840 -111.6930 40° Northeast 420 483 22,100 904 Climbing FlightAware ADS-B
Sat 12:54:22 PM 34.1330 -111.6370 43° Northeast 433 498 22,800 1,364 Climbing FlightAware ADS-B
Sat 12:54:53 PM 34.1820 -111.5820 43° Northeast 440 506 23,600 1,343 Climbing FlightAware ADS-B
Sat 12:55:29 PM 34.2340 -111.5220 44° Northeast 450 518 24,300 1,250 Climbing FlightAware ADS-B
Sat 12:56:05 PM 34.2890 -111.4590 43° Northeast 457 526 25,100 1,371 Climbing FlightAware ADS-B
Sat 12:56:39 PM 34.3430 -111.3980 43° Northeast 464 534 25,900 1,437 Climbing FlightAware ADS-B
Sat 12:57:16 PM 34.4000 -111.3320 44° Northeast 465 535 26,800 1,479 Climbing FlightAware ADS-B
Sat 12:57:52 PM 34.4580 -111.2670 43° Northeast 468 539 27,700 1,417 Climbing FlightAware ADS-B
Sat 12:58:28 PM 34.5150 -111.2010 44° Northeast 473 544 28,500 1,324 Climbing FlightAware ADS-B
Sat 12:59:00 PM 34.5640 -111.1440 44° Northeast 473 544 29,200 1,182 Climbing FlightAware ADS-B
Sat 12:59:34 PM 34.6200 -111.0800 43° Northeast 476 548 29,800 1,083 Climbing FlightAware ADS-B
Sat 01:00:12 PM 34.6800 -111.0100 44° Northeast 481 554 30,500 1,059 Climbing FlightAware ADS-B
Sat 01:00:42 PM 34.7260 -110.9570 43° Northeast 483 556 31,000 1,217 Climbing FlightAware ADS-B
Sat 01:01:21 PM 34.7910 -110.8820 43° Northeast 483 556 31,900 1,250 Climbing FlightAware ADS-B
Sat 01:01:54 PM 34.8440 -110.8200 44° Northeast 483 556 32,500 1,304 Climbing FlightAware ADS-B
Sat 01:02:30 PM 34.9020 -110.7520 44° Northeast 478 550 33,400 1,391 Climbing FlightAware ADS-B
Sat 01:03:03 PM 34.9530 -110.6920 44° Northeast 478 550 34,100 1,233 Climbing FlightAware ADS-B
Sat 01:03:43 PM 35.0180 -110.6170 43° Northeast 474 545 34,900 1,286 Climbing FlightAware ADS-B
Sat 01:04:13 PM 35.0630 -110.5640 44° Northeast 472 543 35,600 1,180 Climbing FlightAware ADS-B
Sat 01:04:44 PM 35.1090 -110.5090 44° Northeast 470 541 36,100 943 Climbing FlightAware ADS-B
Sat 01:05:23 PM 35.1720 -110.4350 44° Northeast 470 541 36,700 720 Climbing FlightAware ADS-B
Sat 01:05:59 PM 35.2300 -110.3670 44° Northeast 468 539 37,000 247 Climbing FlightAware ADS-B
Sat 01:06:36 PM 35.2900 -110.2960 44° Northeast 470 541 37,000  Level FlightAware ADS-B
Sat 01:07:08 PM 35.3360 -110.2420 44° Northeast 470 541 37,000  Level FlightAware ADS-B
Sat 01:07:50 PM 35.4050 -110.1590 44° Northeast 470 541 37,000  Level FlightAware ADS-B
Sat 01:08:29 PM 35.4630 -110.0910 44° Northeast 468 539 37,000  Level FlightAware ADS-B
Sat 01:09:05 PM 35.5210 -110.0220 44° Northeast 468 539 37,000  Level FlightAware ADS-B
Sat 01:09:36 PM 35.5690 -109.9650 44° Northeast 467 537 37,000  Level FlightAware ADS-B
Sat 01:10:12 PM 35.6260 -109.8960 45° Northeast 468 539 37,000  Level FlightAware ADS-B
Sat 01:10:45 PM 35.6750 -109.8360 45° Northeast 467 537 37,000  Level FlightAware ADS-B
Sat 01:11:22 PM 35.7240 -109.7620 51° Northeast 468 539 37,000  Level FlightAware ADS-B
Sat 01:11:58 PM 35.7730 -109.6840 52° Northeast 468 539 37,000  Level FlightAware ADS-B
Sat 01:12:29 PM 35.8140 -109.6190 52° Northeast 469 540 37,000 343 Level FlightAware ADS-B
Sat 01:13:08 PM 35.8660 -109.5350 53° Northeast 473 544 37,400 493 Climbing FlightAware ADS-B
Sat 01:13:42 PM 35.9130 -109.4610 52° Northeast 478 550 37,600 545 Climbing FlightAware ADS-B
Sat 01:14:14 PM 35.9560 -109.3930 52° Northeast 477 549 38,000 600 Climbing FlightAware ADS-B
Sat 01:14:52 PM 36.0070 -109.3100 53° Northeast 478 550 38,300 391 Climbing FlightAware ADS-B
Sat 01:15:46 PM 36.0750 -109.2020 52° Northeast 478 550 38,600 200 Climbing FlightAware ADS-B
Sat 01:16:22 PM 36.1160 -109.1360 52° Northeast 478 550 38,600  Level FlightAware ADS-B
Sat 01:16:58 PM 36.1580 -109.0700 52° Northeast 478 550 38,600  Level FlightAware ADS-B
Sat 01:17:35 PM 36.2010 -109.0020 52° Northeast 478 550 38,600  Level FlightAware ADS-B
Sat 01:18:11 PM 36.2420 -108.9360 52° Northeast 478 550 38,600 353 Level FlightAware ADS-B
Sat 01:18:43 PM 36.3160 -108.8110 54° Northeast 475 547 39,000 387 Climbing FlightAware ADS-B
Sat 01:19:13 PM 36.3550 -108.7480 52° Northeast 474 545 39,000  Level FlightAware ADS-B
Sat 01:20:41 PM 36.4597 -108.5772 52° Northeast 472 543 39,000  Level Albuquerque Center
Sat 01:21:36 PM 36.5350 -108.4519 53° Northeast 469 540 39,000  Level Denver Center
Sat 01:22:38 PM 36.6111 -108.3272 53° Northeast 472 543 39,000  Level Denver Center
Sat 01:23:40 PM 36.6997 -108.1800 53° Northeast 475 547 39,000 48 Level Denver Center
Sat 01:24:42 PM 36.7844 -108.0631 48° Northeast 475 547 39,100  Climbing Denver Center
Sat 01:25:44 PM 36.8983 -107.9522 38° Northeast 463 533 39,000 -48 Descending Denver Center
Sat 01:26:46 PM 36.9953 -107.8536 39° Northeast 468 539 39,000  Level Denver Center
Sat 01:27:48 PM 37.1086 -107.7419 38° Northeast 466 536 39,000  Level Denver Center
Sat 01:28:50 PM 37.2044 -107.6450 39° Northeast 463 533 39,000  Level Denver Center
Sat 01:29:52 PM 37.3186 -107.5344 38° Northeast 463 533 39,000  Level Denver Center
Sat 01:30:54 PM 37.4156 -107.4347 39° Northeast 469 540 39,000 48 Level Denver Center
Sat 01:31:56 PM 37.5292 -107.3197 39° Northeast 469 540 39,100  Climbing Denver Center
Sat 01:32:58 PM 37.6264 -107.2206 39° Northeast 469 540 39,000 -48 Descending Denver Center
Sat 01:34:00 PM 37.7381 -107.1067 39° Northeast 464 534 39,000  Level Denver Center
Sat 01:35:03 PM 37.8356 -107.0061 39° Northeast 461 531 39,000  Level Denver Center
Sat 01:36:05 PM 37.9314 -106.9092 39° Northeast 462 532 39,000  Level Denver Center
Sat 01:37:07 PM 38.0419 -106.7942 39° Northeast 462 532 39,000  Level Denver Center
Sat 01:38:09 PM 38.1375 -106.6961 39° Northeast 461 531 39,000 -628 Level Denver Center
Sat 01:43:29 PM 38.6580 -106.0680 39° Northeast 477 549 35,000 -697 Descending FlightAware ADS-B
Sat 01:44:02 PM 38.7090 -106.0040 44° Northeast 475 547 34,900 -1,457 Descending FlightAware ADS-B
Sat 01:44:39 PM 38.7680 -105.9300 44° Northeast 477 549 33,300 -3,718 Descending FlightAware ADS-B
Sat 01:45:13 PM 38.8220 -105.8620 44° Northeast 504 580 30,500 -3,429 Descending FlightAware ADS-B
Sat 01:45:49 PM 38.8810 -105.7870 45° Northeast 482 555 29,300 -2,118 Descending FlightAware ADS-B
Sat 01:46:21 PM 38.9310 -105.7230 45° Northeast 470 541 28,100 -2,486 Descending FlightAware ADS-B
Sat 01:46:59 PM 38.9880 -105.6510 44° Northeast 452 520 26,400 -2,960 Descending FlightAware ADS-B
Sat 01:47:36 PM 39.0410 -105.5830 45° Northeast 439 505 24,400 -3,457 Descending FlightAware ADS-B
Sat 01:48:31 PM 39.1200 -105.4820 45° Northeast 417 480 21,100 -3,034 Descending FlightAware ADS-B
Sat 01:49:05 PM 39.1620 -105.4280 45° Northeast 387 445 19,900 -2,471 Descending FlightAware ADS-B
Sat 01:49:39 PM 39.2070 -105.3700 45° Northeast 391 450 18,300 -1,744 Descending FlightAware ADS-B
Sat 01:50:31 PM 39.2620 -105.2820 51° Northeast 355 409 17,400 -1,065 Descending FlightAware ADS-B
Sat 01:50:41 PM 39.2660 -105.2600 77° East 353 406 17,200 -1,125 Descending FlightAware ADS-B
Sat 01:50:47 PM 39.2680 -105.2500 76° East 345 397 17,100 -1,714 Descending FlightAware ADS-B
Sat 01:50:55 PM 39.2710 -105.2340 76° East 343 395 16,800 -2,000 Descending FlightAware ADS-B
Sat 01:51:05 PM 39.2750 -105.2130 76° East 341 392 16,500 -1,846 Descending FlightAware ADS-B
Sat 01:51:08 PM 39.2760 -105.2090 72° East 341 392 16,400 -2,400 Descending FlightAware ADS-B
Sat 01:51:10 PM 39.2770 -105.2030 78° East 340 391 16,300 -2,000 Descending FlightAware ADS-B
Sat 01:51:20 PM 39.2800 -105.1850 78° East 338 389 16,000 -1,800 Descending FlightAware ADS-B
Sat 01:51:30 PM 39.2840 -105.1640 76° East 338 389 15,700 -1,579 Descending FlightAware ADS-B
Sat 01:51:39 PM 39.2880 -105.1450 75° East 337 388 15,500 -1,412 Descending FlightAware ADS-B
Sat 01:51:47 PM 39.2910 -105.1300 76° East 336 387 15,300 -1,500 Descending FlightAware ADS-B
Sat 01:51:51 PM 39.2920 -105.1220 81° East 336 387 15,200 -1,286 Descending FlightAware ADS-B
Sat 01:52:01 PM 39.2960 -105.1030 75° East 333 383 15,000 -1,500 Descending FlightAware ADS-B
Sat 01:52:07 PM 39.2980 -105.0910 78° East 331 381 14,800 -1,091 Descending FlightAware ADS-B
Sat 01:52:12 PM 39.3000 -105.0830 72° East 330 380 14,800 -800 Level FlightAware ADS-B
Sat 01:52:22 PM 39.3030 -105.0660 77° East 327 376 14,600 -1,091 Descending FlightAware ADS-B
Sat 01:52:23 PM 39.3040 -105.0600 78° East 325 374 14,600 -462 Level FlightAware ADS-B
Sat 01:52:35 PM 39.3080 -105.0390 76° East 317 365 14,500 -600 Descending FlightAware ADS-B
Sat 01:52:43 PM 39.3110 -105.0240 76° East 313 360 14,400 -500 Descending FlightAware ADS-B
Sat 01:52:47 PM 39.3120 -105.0180 78° East 312 359 14,400 -1,000 Level FlightAware ADS-B
Sat 01:52:55 PM 39.3140 -105.0040 80° East 311 358 14,200 -1,500 Descending FlightAware ADS-B
Sat 01:53:03 PM 39.3170 -104.9890 76° East 309 356 14,000 -1,125 Descending FlightAware ADS-B
Sat 01:53:11 PM 39.3200 -104.9750 75° East 305 351 13,900 -600 Descending FlightAware ADS-B
Sat 01:53:13 PM 39.3200 -104.9720 90° East 305 351 13,900  Level FlightAware ADS-B
Sat 01:53:19 PM 39.3220 -104.9620 76° East 301 346 13,900 -667 Level FlightAware ADS-B
Sat 01:53:31 PM 39.3280 -104.9400 71° East 299 344 13,700 -900 Descending FlightAware ADS-B
Sat 01:53:39 PM 39.3330 -104.9280 62° Northeast 298 343 13,600 -1,000 Descending FlightAware ADS-B
Sat 01:53:43 PM 39.3370 -104.9210 54° Northeast 298 343 13,500 -1,000 Descending FlightAware ADS-B
Sat 01:53:51 PM 39.3420 -104.9090 62° Northeast 295 339 13,400 -1,050 Descending FlightAware ADS-B
Sat 01:54:23 PM 39.3650 -104.8610 58° Northeast 295 339 12,800 -1,219 Descending FlightAware ADS-B
Sat 01:54:55 PM 39.3890 -104.8150 56° Northeast 294 338 12,100 -1,227 Descending FlightAware ADS-B
Sat 01:55:07 PM 39.4030 -104.8020 36° Northeast 295 339 11,900 -1,250 Descending FlightAware ADS-B
Sat 01:55:43 PM 39.4450 -104.7720 29° Northeast 292 336 11,100 -1,333 Descending FlightAware ADS-B
Sat 01:56:19 PM 39.4880 -104.7410 29° Northeast 288 331 10,300 -1,286 Descending FlightAware ADS-B
Sat 01:56:39 PM 39.5100 -104.7250 29° Northeast 285 328 9,900 -600 Descending FlightAware ADS-B
Sat 01:56:59 PM 39.5310 -104.7110 27° Northeast 273 314 9,900  Level FlightAware ADS-B
Sat 01:57:23 PM 39.5590 -104.6900 30° Northeast 256 295 9,900  Level FlightAware ADS-B
Sat 01:57:35 PM 39.5710 -104.6810 30° Northeast 256 295 9,900  Level FlightAware ADS-B
Sat 01:57:47 PM 39.5840 -104.6720 28° Northeast 260 299 9,900 -158 Level FlightAware ADS-B
Sat 01:58:13 PM 39.6120 -104.6540 26° Northeast 261 300 9,800 -391 Descending FlightAware ADS-B
Sat 01:58:33 PM 39.6340 -104.6470 14° North 257 296 9,600 -857 Descending FlightAware ADS-B
Sat 01:58:41 PM 39.6440 -104.6450 North 255 293 9,400 -1,313 Descending FlightAware ADS-B
Sat 01:59:05 PM 39.6710 -104.6440 North 232 267 8,900 -1,404 Descending FlightAware ADS-B
Sat 01:59:28 PM 39.6950 -104.6430 North 220 253 8,300 -1,543 Descending FlightAware ADS-B
Sat 01:59:40 PM 39.7060 -104.6430 360° North 215 247 8,000 -1,622 Descending FlightAware ADS-B
Sat 02:00:05 PM 39.7310 -104.6430 360° North 202 232 7,300 -1,600 Descending FlightAware ADS-B
Sat 02:00:25 PM 39.7490 -104.6430 360° North 192 221 6,800 -1,350 Descending FlightAware ADS-B
Sat 02:00:45 PM 39.7670 -104.6430 360° North 179 206 6,400 -1,059 Descending FlightAware ADS-B
Sat 02:00:59 PM 39.7770 -104.6420 North 163 188 6,200 -833 Descending FlightAware ADS-B
Sat 02:01:21 PM 39.7930 -104.6420 360° North 154 177 5,900 -706 Descending FlightAware ADS-B
Sat 02:01:33 PM 39.8010 -104.6420 360° North 153 176 5,800 -563 Descending FlightAware ADS-B
Sat 02:01:53 PM 39.8150 -104.6420 360° North 150 173 5,600 -833 Descending FlightAware ADS-B
Sat 02:02:09 PM 39.8270 -104.6420 360° North 150 173 5,300 -375 Descending FlightAware ADS-B
Sat 02:02:41 PM 39.8460 -104.6410 North 150 173 5,300  Level FlightAware ADS-B

Login

Don't have an account? Register now (free) for customized features, flight alerts, and more!